Latest Weather Observations for Port Fairy

IDV60801

Issued at 5:32 am EDT Saturday 19 October 2019 (issued every 10 minutes, with the page automatically refreshed every 10 minutes)

About weather observations | Map of weather stations | Latest weather observations for VIC | Other Formats
Station Details ID: 090175 Name: PORT FAIRY AWS Lat: -38.39 Lon: 142.23 Height: 10.0 m
Data from the previous 72 hours. | See also: Recent months at Port Fairy
Date/Time
EDT
Temp
°C
App
Temp
°C
Dew
Point
°C
Rel
Hum
%
Delta-T
°C
Wind Press
QNH
hPa
Press
MSL
hPa
Rain since
9am
mm
Dir  Spd
km/h
Gust
km/h
Spd
kts
Gust
kts
19/05:30am 7.0 2.7 7.0 100 0.0 NW 19 26 10 14 1012.5 1012.5 6.0
19/05:00am 7.2 4.1 7.2 100 0.0 NNW 13 22 7 12 1012.5 1012.5 6.0
19/04:30am 7.1 4.0 7.1 100 0.0 NW 13 20 7 11 1012.4 1012.4 6.0
19/04:00am 7.2 3.7 7.2 100 0.0 NW 15 28 8 15 1012.4 1012.4 6.0
19/03:30am 7.1 4.7 7.1 100 0.0 WNW 9 17 5 9 1012.6 1012.6 6.0
19/03:00am 7.3 4.2 7.3 100 0.0 NW 13 19 7 10 1012.5 1012.5 6.0
19/02:30am 7.5 4.1 7.5 100 0.0 NW 15 24 8 13 1012.6 1012.6 6.0
19/02:00am 8.1 4.8 8.1 100 0.0 NW 15 28 8 15 1012.7 1012.7 6.0
19/01:30am 7.9 4.2 7.9 100 0.0 WNW 17 26 9 14 1012.9 1012.9 6.0
19/01:00am 7.7 3.6 7.7 100 0.0 WNW 19 30 10 16 1013.3 1013.3 5.8
19/12:30am 8.0 4.3 8.0 100 0.0 NW 17 30 9 16 1012.7 1012.7 5.6
19/12:00am 8.2 6.1 8.2 100 0.0 NW 9 17 5 9 1012.9 1012.9 5.4
 
Date/Time
EDT
Temp
°C
App
Temp
°C
Dew
Point
°C
Rel
Hum
%
Delta-T
°C
Wind Press
QNH
hPa
Press
MSL
hPa
Rain since
9am
mm
Dir  Spd
km/h
Gust
km/h
Spd
kts
Gust
kts
18/11:30pm 8.7 6.3 8.7 100 0.0 W 11 19 6 10 1013.4 1013.4 5.2
18/11:00pm 8.8 6.1 8.8 100 0.0 NW 13 20 7 11 1013.1 1013.1 5.0
18/10:30pm 8.9 5.8 8.9 100 0.0 NW 15 19 8 10 1013.1 1013.1 5.0
18/10:00pm 9.4 7.2 9.4 100 0.0 NW 11 17 6 9 1013.2 1013.2 4.8
18/09:30pm 9.5 6.2 9.5 100 0.0 WNW 17 28 9 15 1013.3 1013.3 4.8
18/09:01pm 10.5 4.0 10.2 98 0.2 WSW 35 56 19 30 1013.1 1013.1 4.8
18/09:00pm 10.6 4.1 10.3 98 0.2 WSW 35 48 19 26 1013.0 1013.0 4.8
18/08:30pm 10.7 5.2 10.4 98 0.2 W 30 39 16 21 1012.5 1012.5 4.6
18/08:05pm 10.7 4.3 10.7 100 0.0 WSW 35 54 19 29 1012.3 1012.3 4.6
18/08:00pm 11.3 4.7 11.3 100 0.0 WSW 37 54 20 29 1012.2 1012.2 4.6
18/07:40pm 11.7 6.5 10.3 91 0.7 W 28 48 15 26 1011.9 1011.9 4.6
18/07:30pm 11.6 5.4 10.0 90 0.8 W 33 50 18 27 1011.8 1011.8 4.6
18/07:00pm 12.1 6.4 11.2 94 0.5 W 32 52 17 28 1011.4 1011.4 4.6
18/06:30pm 12.6 5.7 11.7 94 0.5 W 39 54 21 29 1010.7 1010.7 4.6
18/06:00pm 12.4 5.7 11.0 91 0.7 W 37 52 20 28 1010.4 1010.4 4.6
18/05:37pm 13.0 8.2 13.0 100 0.0 W 30 48 16 26 1010.2 1010.2 4.6
18/05:30pm 12.8 7.5 12.6 99 0.1 W 32 48 17 26 1010.1 1010.1 4.6
18/05:00pm 11.7 6.0 11.7 100 0.0 W 33 48 18 26 1009.9 1009.9 4.6
18/04:39pm 12.5 8.0 12.5 100 0.0 W 28 59 15 32 1009.9 1009.9 4.6
18/04:30pm 12.8 8.7 12.8 100 0.0 WNW 26 44 14 24 1009.7 1009.7 4.6
18/04:00pm 12.7 8.6 12.7 100 0.0 WNW 26 39 14 21 1009.7 1009.7 4.6
18/03:30pm 12.2 7.9 12.2 100 0.0 WNW 26 39 14 21 1009.9 1009.9 3.8
18/03:05pm 12.9 8.1 12.9 100 0.0 NW 30 57 16 31 1010.2 1010.2 1.8
18/03:00pm 13.5 8.9 13.5 100 0.0 NNW 30 46 16 25 1009.1 1009.1 0.6
18/02:34pm 14.9 10.4 12.6 86 1.3 NNW 28 48 15 26 1009.1 1009.1 0.2
18/02:30pm 14.6 10.8 12.5 87 1.1 NNW 24 43 13 23 1009.2 1009.2 0.2
18/02:06pm 15.1 10.2 12.4 84 1.5 NNW 30 52 16 28 1009.3 1009.3 0.2
18/02:00pm 15.1 10.1 12.2 83 1.6 NNW 30 48 16 26 1009.4 1009.4 0.2
18/01:30pm 15.8 10.5 12.5 81 1.8 NNW 32 56 17 30 1009.5 1009.5 0.2
18/01:02pm 16.2 11.0 12.9 81 1.8 NW 32 52 17 28 1009.6 1009.6 0.2
18/01:00pm 16.3 11.0 13.0 81 1.8 NW 33 52 18 28 1009.6 1009.6 0.2
18/12:30pm 15.9 11.0 12.5 80 1.9 NNW 30 52 16 28 1009.9 1009.9 0.0
18/12:00pm 14.9 9.8 11.9 82 1.6 NNW 30 52 16 28 1010.3 1010.3 0.0
18/11:30am 15.2 9.8 12.3 83 1.6 NNW 32 50 17 27 1010.6 1010.6 0.0
18/11:01am 14.3 8.7 11.5 83 1.5 NW 32 50 17 27 1011.1 1011.1 0.0
18/11:00am 14.2 8.3 11.2 82 1.6 NW 33 50 18 27 1011.0 1011.0 0.0
18/10:30am 14.2 9.4 11.5 84 1.4 NNW 28 52 15 28 1011.2 1011.2 0.0
18/10:29am 14.4 9.7 12.1 86 1.2 NNW 28 52 15 28 1011.1 1011.1 0.0
18/10:00am 12.5 8.2 10.9 90 0.8 NNW 24 37 13 20 1011.4 1011.4 0.0
18/09:40am 12.1 7.0 10.5 90 0.8 NNW 28 48 15 26 1011.5 1011.5 0.0
18/09:30am 12.1 7.4 10.8 92 0.7 NNW 26 43 14 23 1011.8 1011.8 0.0
18/09:00am 11.8 7.0 10.4 91 0.7 NNW 26 44 14 24 1012.0 1012.0 4.0
18/08:30am 11.2 6.3 10.1 93 0.6 NNW 26 43 14 23 1011.9 1011.9 4.0
18/08:00am 10.3 6.5 9.7 96 0.3 NNW 20 37 11 20 1012.0 1012.0 4.0
18/07:30am 10.1 5.8 9.5 96 0.3 NNW 22 43 12 23 1012.0 1012.0 4.0
18/07:00am 10.0 5.7 9.2 95 0.4 N 22 35 12 19 1011.9 1011.9 4.0
18/06:30am 10.0 7.4 9.2 95 0.4 NNW 13 24 7 13 1012.2 1012.2 4.0
18/06:00am 10.2 7.5 9.1 93 0.5 NNW 13 24 7 13 1012.4 1012.4 4.0
18/05:30am 10.4 6.6 9.0 91 0.7 NNW 19 30 10 16 1012.4 1012.4 4.0
18/05:00am 10.3 6.3 8.9 91 0.7 NNW 20 35 11 19 1012.5 1012.5 4.0
18/04:30am 10.3 6.8 8.9 91 0.7 NNW 17 26 9 14 1012.8 1012.8 4.0
18/04:00am 10.2 7.0 8.6 90 0.8 NNW 15 24 8 13 1013.1 1013.1 4.0
18/03:30am 10.0 6.8 8.6 91 0.7 NNW 15 26 8 14 1013.7 1013.7 4.0
18/03:00am 9.8 7.4 8.6 92 0.6 NNW 11 17 6 9 1014.0 1014.0 4.0
18/02:30am 9.9 7.0 8.3 90 0.8 NNW 13 20 7 11 1014.4 1014.4 4.0
18/02:00am 9.9 7.4 8.3 90 0.8 NNW 11 17 6 9 1014.8 1014.8 4.0
18/01:30am 10.1 7.2 8.2 88 0.9 NNW 13 20 7 11 1015.3 1015.3 4.0
18/01:00am 10.1 7.2 8.0 87 1.0 NNW 13 20 7 11 1015.4 1015.4 4.0
18/12:30am 10.2 6.9 8.1 87 1.0 NNW 15 26 8 14 1015.4 1015.4 4.0
18/12:00am 10.2 7.7 8.3 88 0.9 NNW 11 19 6 10 1015.6 1015.6 4.0
 
Date/Time
EDT
Temp
°C
App
Temp
°C
Dew
Point
°C
Rel
Hum
%
Delta-T
°C
Wind Press
QNH
hPa
Press
MSL
hPa
Rain since
9am
mm
Dir  Spd
km/h
Gust
km/h
Spd
kts
Gust
kts
17/11:30pm 10.1 7.6 8.4 89 0.8 NW 11 19 6 10 1016.0 1016.0 4.0
17/11:00pm 10.1 7.7 8.5 90 0.8 NW 11 17 6 9 1016.0 1016.0 4.0
17/10:30pm 10.1 8.2 9.2 94 0.4 NNW 9 15 5 8 1016.2 1016.2 4.0
17/10:00pm 10.3 7.7 9.2 93 0.5 NW 13 19 7 10 1016.2 1016.2 4.0
17/09:30pm 10.3 7.6 9.1 92 0.6 NNW 13 19 7 10 1016.1 1016.1 4.0
17/09:00pm 10.5 7.9 9.4 93 0.5 NW 13 20 7 11 1016.0 1016.0 4.0
17/08:30pm 11.2 7.3 8.6 84 1.3 WNW 19 28 10 15 1015.7 1015.7 4.0
17/08:00pm 11.1 7.0 8.8 86 1.1 W 20 32 11 17 1015.7 1015.7 4.0
17/07:30pm 11.1 5.4 8.5 84 1.3 W 28 44 15 24 1015.4 1015.4 4.0
17/07:00pm 11.3 6.3 9.6 89 0.9 W 26 37 14 20 1015.1 1015.1 4.0
17/06:30pm 11.6 5.8 10.7 94 0.5 W 32 46 17 25 1014.7 1014.7 4.0
17/06:00pm 11.5 5.7 11.5 100 0.0 W 33 46 18 25 1014.3 1014.3 4.0
17/05:30pm 11.1 4.4 11.1 100 0.0 WSW 37 50 20 27 1013.9 1013.9 4.0
17/05:00pm 10.8 4.4 10.8 100 0.0 WSW 35 50 19 27 1013.7 1013.7 4.0
17/04:30pm 11.3 5.4 11.3 100 0.0 WSW 33 52 18 28 1013.4 1013.4 3.2
17/04:00pm 13.0 5.9 12.1 94 0.5 WSW 41 54 22 29 1013.1 1013.1 2.8
17/03:30pm 13.6 6.2 12.5 93 0.6 WSW 43 54 23 29 1012.8 1012.8 2.8
17/03:00pm 14.8 9.0 12.8 88 1.1 WSW 35 48 19 26 1012.6 1012.6 2.8
17/02:30pm 14.3 8.1 12.5 89 1.0 WSW 37 46 20 25 1012.5 1012.5 2.8
17/02:00pm 14.1 8.4 13.0 93 0.6 WSW 35 48 19 26 1012.3 1012.3 2.8
17/01:30pm 14.3 8.9 12.9 91 0.8 WSW 33 46 18 25 1011.7 1011.7 2.8
17/01:00pm 13.6 7.2 13.3 98 0.2 WSW 39 50 21 27 1011.1 1011.1 2.8
17/12:30pm 13.0 6.2 13.0 100 0.0 WSW 41 54 22 29 1010.6 1010.6 2.8
17/12:00pm 11.3 3.9 11.3 100 0.0 WSW 41 61 22 33 1010.2 1010.2 2.8
17/11:38am 12.5 7.0 12.5 100 0.0 W 33 57 18 31 1009.9 1009.9 2.8
17/11:30am 12.4 6.1 12.4 100 0.0 W 37 54 20 29 1009.8 1009.8 2.8
17/11:00am 11.4 4.1 11.4 100 0.0 W 41 61 22 33 1009.5 1009.5 2.8
17/10:30am 9.8 1.4 9.8 100 0.0 WSW 44 78 24 42 1009.3 1009.3 2.6
17/10:23am 9.0 0.6 9.0 100 0.0 WSW 43 78 23 42 1009.5 1009.5 2.6
17/10:00am 9.5 2.4 9.5 100 0.0 W 37 61 20 33 1008.9 1008.9 1.4
17/09:30am 9.1 2.8 9.1 100 0.0 W 32 54 17 29 1008.8 1008.8 0.6
17/09:25am 8.6 2.0 8.6 100 0.0 W 33 54 18 29 1008.8 1008.8 0.6
17/09:24am 8.6 2.0 8.6 100 0.0 W 33 48 18 26 1008.8 1008.8 0.6
17/09:00am 8.4 -0.7 8.4 100 0.0 WSW 46 70 25 38 1008.8 1008.8 10.4
17/08:38am 9.5 2.4 9.5 100 0.0 WSW 37 57 20 31 1008.4 1008.4 9.4
17/08:30am 9.7 3.6 9.7 100 0.0 W 32 48 17 26 1008.3 1008.3 9.4
17/08:29am 9.7 3.6 9.7 100 0.0 W 32 48 17 26 1008.4 1008.4 9.4
17/08:21am 9.6 3.8 9.6 100 0.0 W 30 44 16 24 1008.1 1008.1 9.4
17/08:03am 9.9 2.5 9.9 100 0.0 WSW 39 59 21 32 1008.1 1008.1 9.4
17/08:00am 10.0 2.6 10.0 100 0.0 WSW 39 54 21 29 1008.0 1008.0 9.4
17/07:35am 9.7 3.4 9.7 100 0.0 W 33 59 18 32 1007.8 1007.8 9.2
17/07:30am 9.4 2.6 9.4 100 0.0 W 35 50 19 27 1007.7 1007.7 9.2
17/07:00am 9.4 2.6 9.4 100 0.0 W 35 61 19 33 1007.2 1007.2 9.0
17/06:57am 9.3 3.1 9.3 100 0.0 W 32 56 17 30 1007.1 1007.1 9.0
17/06:30am 8.3 3.4 8.3 100 0.0 W 24 43 13 23 1006.8 1006.8 9.0
17/06:26am 7.9 3.8 7.9 100 0.0 WNW 19 43 10 23 1006.9 1006.9 9.0
17/06:00am 7.4 3.9 7.4 100 0.0 NNW 15 20 8 11 1006.5 1006.5 9.0
17/05:30am 7.5 4.5 7.5 100 0.0 WNW 13 19 7 10 1007.0 1007.0 8.2
17/05:00am 7.5 3.7 7.5 100 0.0 WNW 17 30 9 16 1006.3 1006.3 7.0
17/04:30am 7.6 4.6 7.6 100 0.0 NW 13 28 7 15 1006.0 1006.0 6.4
17/04:00am 7.7 3.9 7.7 100 0.0 NW 17 26 9 14 1006.3 1006.3 5.4
17/03:30am 7.8 4.1 7.8 100 0.0 NW 17 26 9 14 1006.4 1006.4 5.2
17/03:00am 7.9 4.6 7.9 100 0.0 NW 15 24 8 13 1006.7 1006.7 5.0
17/02:30am 7.9 3.6 7.9 100 0.0 NW 20 46 11 25 1006.7 1006.7 5.0
17/02:00am 7.6 4.6 7.6 100 0.0 NNW 13 24 7 13 1006.9 1006.9 5.0
17/01:30am 7.9 5.3 7.9 100 0.0 NNW 11 17 6 9 1007.3 1007.3 5.0
17/01:00am 8.0 5.1 8.0 100 0.0 NNW 13 19 7 10 1007.5 1007.5 5.0
17/12:30am 8.6 6.2 8.6 100 0.0 NNW 11 15 6 8 1007.6 1007.6 5.0
17/12:00am 8.9 5.8 8.9 100 0.0 NW 15 26 8 14 1007.9 1007.9 4.8
 
Date/Time
EDT
Temp
°C
App
Temp
°C
Dew
Point
°C
Rel
Hum
%
Delta-T
°C
Wind Press
QNH
hPa
Press
MSL
hPa
Rain since
9am
mm
Dir  Spd
km/h
Gust
km/h
Spd
kts
Gust
kts
16/11:30pm 9.1 5.3 9.1 100 0.0 WNW 19 28 10 15 1008.5 1008.5 4.0
16/11:15pm 9.4 6.1 9.4 100 0.0 W 17 37 9 20 1008.4 1008.4 3.4
16/11:00pm 10.1 8.5 10.1 100 0.0 W 9 15 5 8 1008.0 1008.0 3.0
16/10:30pm 10.7 9.2 10.7 100 0.0 N 9 17 5 9 1007.9 1007.9 2.8
16/10:00pm 11.1 9.8 11.1 100 0.0 NNE 9 15 5 8 1008.0 1008.0 2.8
16/09:30pm 10.5 9.6 10.5 100 0.0 NNE 6 7 3 4 1008.5 1008.5 2.8
16/09:00pm 10.0 9.3 10.0 100 0.0 N 4 6 2 3 1008.8 1008.8 2.8
16/08:30pm 10.6 10.0 10.3 98 0.2 NNW 4 6 2 3 1008.7 1008.7 2.8
16/08:00pm 11.6 10.1 10.7 94 0.5 W 9 13 5 7 1008.5 1008.5 2.8
16/07:30pm 12.4 10.3 11.0 91 0.7 WSW 13 19 7 10 1008.5 1008.5 2.8
16/07:00pm 13.2 9.8 11.3 88 1.0 WSW 20 26 11 14 1008.6 1008.6 2.8
16/06:30pm 13.8 10.7 12.2 90 0.9 WSW 20 26 11 14 1008.7 1008.7 2.8
16/06:00pm 14.3 11.3 12.5 89 1.0 SW 20 28 11 15 1008.6 1008.6 2.8
16/05:30pm 14.6 11.7 13.0 90 0.9 SW 20 26 11 14 1008.5 1008.5 2.8
16/05:00pm 14.8 12.0 13.3 91 0.8 WSW 20 28 11 15 1008.6 1008.6 2.8
16/04:30pm 15.3 13.0 14.2 93 0.6 WSW 19 24 10 13 1008.6 1008.6 2.8
16/04:00pm 15.5 13.8 14.7 95 0.5 WSW 17 24 9 13 1008.6 1008.6 2.8
16/03:30pm 15.6 14.4 15.1 97 0.3 WSW 15 20 8 11 1009.0 1009.0 2.8
16/03:00pm 15.4 15.1 15.4 100 0.0 SW 11 17 6 9 1009.1 1009.1 2.8
16/02:30pm 14.2 13.8 14.2 100 0.0 SSW 9 13 5 7 1009.4 1009.4 2.8
16/02:00pm 13.9 13.8 13.9 100 0.0 SSE 7 9 4 5 1009.4 1009.4 2.8
16/01:30pm 13.2 12.9 13.2 100 0.0 ESE 7 9 4 5 1009.5 1009.5 2.8
16/01:00pm 13.8 13.9 13.8 100 0.0 ENE 6 9 3 5 1009.6 1009.6 2.8
16/12:30pm 13.1 12.7 13.1 100 0.0 SE 7 13 4 7 1010.0 1010.0 2.8
16/12:00pm 12.6 11.7 12.6 100 0.0 SSE 9 13 5 7 1010.3 1010.3 2.8
16/11:30am 12.1 10.7 12.1 100 0.0 SSE 11 13 6 7 1010.5 1010.5 2.8
16/11:00am 11.9 10.4 11.9 100 0.0 S 11 17 6 9 1010.8 1010.8 2.6
16/10:30am 11.8 9.9 11.8 100 0.0 S 13 19 7 10 1010.8 1010.8 1.8
16/10:00am 11.9 9.6 11.9 100 0.0 S 15 20 8 11 1010.7 1010.7 0.6
16/09:30am 12.5 12.5 12.5 100 0.0 WNW 4 13 2 7 1010.6 1010.6 0.0
16/09:00am 12.3 13.0 12.3 100 0.0 CALM 0 0 0 0 1010.6 1010.6 0.0
16/08:30am 11.8 12.4 11.8 100 0.0 CALM 0 0 0 0 1011.0 1011.0 0.0
16/08:00am 11.0 11.3 11.0 100 0.0 CALM 0 0 0 0 1011.0 1011.0 0.0
16/07:30am 10.5 10.7 10.5 100 0.0 CALM 0 0 0 0 1010.7 1010.7 0.0
16/07:00am 10.4 10.6 10.4 100 0.0 CALM 0 2 0 1 1011.1 1011.1 0.0
16/06:30am 10.1 10.2 10.1 100 0.0 CALM 0 0 0 0 1010.9 1010.9 0.0
16/06:00am 10.5 10.7 10.5 100 0.0 CALM 0 0 0 0 1011.1 1011.1 0.0

Other formats

Comma delimited format used in spreadsheet applications
http://www.bom.gov.au/fwo/IDV60801/IDV60801.94830.axf

JavaScript Object Notation format (JSON) in row-major order
http://www.bom.gov.au/fwo/IDV60801/IDV60801.94830.json

Data quality

Most of these data are generated automatically and are frequently updated. Quality checks on data are not normally performed. It is possible for incorrect values to appear. Refer to information at About Latest Weather Observations and please check the disclaimer before using these data.